sensor_id;sensor_type;location;lat;lon;timestamp;P1;durP1;ratioP1;P2;durP2;ratioP2
19816;SDS011;68323;49.394;8.434;2024-02-15T00:00:39;8.60;;;4.00;;
19816;SDS011;68323;49.394;8.434;2024-02-15T00:03:05;7.17;;;4.50;;
19816;SDS011;68323;49.394;8.434;2024-02-15T00:05:32;6.77;;;4.23;;
19816;SDS011;68323;49.394;8.434;2024-02-15T00:07:59;7.07;;;4.70;;
19816;SDS011;68323;49.394;8.434;2024-02-15T00:10:25;5.53;;;3.80;;
19816;SDS011;68323;49.394;8.434;2024-02-15T00:12:50;8.80;;;3.97;;
19816;SDS011;68323;49.394;8.434;2024-02-15T00:15:16;6.13;;;4.20;;
19816;SDS011;68323;49.394;8.434;2024-02-15T00:17:42;7.50;;;4.20;;
19816;SDS011;68323;49.394;8.434;2024-02-15T00:20:07;8.00;;;3.90;;
19816;SDS011;68323;49.394;8.434;2024-02-15T00:22:35;6.43;;;4.07;;
19816;SDS011;68323;49.394;8.434;2024-02-15T00:25:01;5.83;;;4.00;;
19816;SDS011;68323;49.394;8.434;2024-02-15T00:27:27;6.20;;;3.37;;
19816;SDS011;68323;49.394;8.434;2024-02-15T00:29:54;7.17;;;3.33;;
19816;SDS011;68323;49.394;8.434;2024-02-15T00:32:20;7.83;;;4.00;;
19816;SDS011;68323;49.394;8.434;2024-02-15T00:34:45;8.23;;;3.77;;
19816;SDS011;68323;49.394;8.434;2024-02-15T00:37:12;6.93;;;4.07;;
19816;SDS011;68323;49.394;8.434;2024-02-15T00:39:37;10.03;;;4.53;;
19816;SDS011;68323;49.394;8.434;2024-02-15T00:42:03;9.80;;;4.90;;
19816;SDS011;68323;49.394;8.434;2024-02-15T00:44:33;6.13;;;4.40;;
19816;SDS011;68323;49.394;8.434;2024-02-15T00:46:59;7.63;;;4.63;;
19816;SDS011;68323;49.394;8.434;2024-02-15T00:49:25;6.83;;;4.27;;
19816;SDS011;68323;49.394;8.434;2024-02-15T00:51:53;10.03;;;4.57;;
19816;SDS011;68323;49.394;8.434;2024-02-15T00:54:18;9.00;;;4.97;;
19816;SDS011;68323;49.394;8.434;2024-02-15T00:56:44;7.20;;;4.50;;
19816;SDS011;68323;49.394;8.434;2024-02-15T00:59:09;9.50;;;4.90;;
19816;SDS011;68323;49.394;8.434;2024-02-15T01:01:35;7.33;;;4.33;;
19816;SDS011;68323;49.394;8.434;2024-02-15T01:04:06;13.47;;;4.77;;
19816;SDS011;68323;49.394;8.434;2024-02-15T01:06:31;7.17;;;4.57;;
19816;SDS011;68323;49.394;8.434;2024-02-15T01:08:57;9.33;;;4.43;;
19816;SDS011;68323;49.394;8.434;2024-02-15T01:11:26;7.73;;;4.47;;
19816;SDS011;68323;49.394;8.434;2024-02-15T01:13:53;8.67;;;4.30;;
19816;SDS011;68323;49.394;8.434;2024-02-15T01:16:19;8.70;;;4.30;;
19816;SDS011;68323;49.394;8.434;2024-02-15T01:18:46;8.07;;;4.13;;
19816;SDS011;68323;49.394;8.434;2024-02-15T01:21:12;6.73;;;4.20;;
19816;SDS011;68323;49.394;8.434;2024-02-15T01:23:38;9.20;;;4.27;;
19816;SDS011;68323;49.394;8.434;2024-02-15T01:26:04;10.13;;;4.00;;
19816;SDS011;68323;49.394;8.434;2024-02-15T01:28:30;6.00;;;3.83;;
19816;SDS011;68323;49.394;8.434;2024-02-15T01:30:55;7.43;;;4.20;;
19816;SDS011;68323;49.394;8.434;2024-02-15T01:33:21;8.27;;;4.13;;
19816;SDS011;68323;49.394;8.434;2024-02-15T01:35:47;8.20;;;4.33;;
19816;SDS011;68323;49.394;8.434;2024-02-15T01:38:13;6.80;;;3.70;;
19816;SDS011;68323;49.394;8.434;2024-02-15T01:40:39;8.63;;;3.77;;
19816;SDS011;68323;49.394;8.434;2024-02-15T01:43:04;8.47;;;4.10;;
19816;SDS011;68323;49.394;8.434;2024-02-15T01:45:30;7.10;;;3.50;;
19816;SDS011;68323;49.394;8.434;2024-02-15T01:47:56;4.83;;;3.77;;
19816;SDS011;68323;49.394;8.434;2024-02-15T01:50:23;6.50;;;4.00;;
19816;SDS011;68323;49.394;8.434;2024-02-15T01:52:50;8.87;;;4.90;;
19816;SDS011;68323;49.394;8.434;2024-02-15T01:55:19;9.77;;;7.20;;
19816;SDS011;68323;49.394;8.434;2024-02-15T01:57:46;15.33;;;9.17;;
19816;SDS011;68323;49.394;8.434;2024-02-15T02:00:15;12.53;;;7.90;;
19816;SDS011;68323;49.394;8.434;2024-02-15T02:02:42;10.83;;;7.30;;
19816;SDS011;68323;49.394;8.434;2024-02-15T02:05:10;9.83;;;6.03;;
19816;SDS011;68323;49.394;8.434;2024-02-15T02:07:36;8.20;;;5.30;;
19816;SDS011;68323;49.394;8.434;2024-02-15T02:10:02;6.50;;;4.30;;
19816;SDS011;68323;49.394;8.434;2024-02-15T02:12:29;7.40;;;4.00;;
19816;SDS011;68323;49.394;8.434;2024-02-15T02:14:55;5.57;;;3.93;;
19816;SDS011;68323;49.394;8.434;2024-02-15T02:17:21;7.20;;;3.80;;
19816;SDS011;68323;49.394;8.434;2024-02-15T02:19:47;8.37;;;4.23;;
19816;SDS011;68323;49.394;8.434;2024-02-15T02:22:15;8.50;;;4.17;;
19816;SDS011;68323;49.394;8.434;2024-02-15T02:27:28;9.07;;;4.20;;
19816;SDS011;68323;49.394;8.434;2024-02-15T02:29:55;6.90;;;4.10;;
19816;SDS011;68323;49.394;8.434;2024-02-15T02:32:22;7.77;;;4.07;;
19816;SDS011;68323;49.394;8.434;2024-02-15T02:34:48;9.03;;;4.20;;
19816;SDS011;68323;49.394;8.434;2024-02-15T02:37:13;7.57;;;3.83;;
19816;SDS011;68323;49.394;8.434;2024-02-15T02:39:39;7.23;;;4.00;;
19816;SDS011;68323;49.394;8.434;2024-02-15T02:42:05;8.80;;;3.57;;
19816;SDS011;68323;49.394;8.434;2024-02-15T02:44:30;7.40;;;3.87;;
19816;SDS011;68323;49.394;8.434;2024-02-15T02:46:56;5.53;;;3.60;;
19816;SDS011;68323;49.394;8.434;2024-02-15T02:49:22;7.70;;;4.00;;
19816;SDS011;68323;49.394;8.434;2024-02-15T02:51:48;8.80;;;3.70;;
19816;SDS011;68323;49.394;8.434;2024-02-15T02:54:13;5.90;;;3.90;;
19816;SDS011;68323;49.394;8.434;2024-02-15T02:56:40;12.40;;;3.77;;
19816;SDS011;68323;49.394;8.434;2024-02-15T02:59:05;6.37;;;3.40;;
19816;SDS011;68323;49.394;8.434;2024-02-15T03:01:33;7.17;;;3.77;;
19816;SDS011;68323;49.394;8.434;2024-02-15T03:03:58;8.73;;;3.90;;
19816;SDS011;68323;49.394;8.434;2024-02-15T03:06:24;8.20;;;3.70;;
19816;SDS011;68323;49.394;8.434;2024-02-15T03:08:50;7.67;;;3.70;;
19816;SDS011;68323;49.394;8.434;2024-02-15T03:11:19;6.90;;;3.57;;
19816;SDS011;68323;49.394;8.434;2024-02-15T03:13:45;7.57;;;4.00;;
19816;SDS011;68323;49.394;8.434;2024-02-15T03:16:10;12.87;;;4.13;;
19816;SDS011;68323;49.394;8.434;2024-02-15T03:18:36;8.73;;;3.97;;
19816;SDS011;68323;49.394;8.434;2024-02-15T03:21:02;8.40;;;3.73;;
19816;SDS011;68323;49.394;8.434;2024-02-15T03:23:29;8.40;;;3.63;;
19816;SDS011;68323;49.394;8.434;2024-02-15T03:25:55;9.53;;;4.40;;
19816;SDS011;68323;49.394;8.434;2024-02-15T03:28:21;7.13;;;3.87;;
19816;SDS011;68323;49.394;8.434;2024-02-15T03:30:49;5.97;;;3.60;;
19816;SDS011;68323;49.394;8.434;2024-02-15T03:33:15;7.27;;;3.90;;
19816;SDS011;68323;49.394;8.434;2024-02-15T03:35:41;8.77;;;4.10;;
19816;SDS011;68323;49.394;8.434;2024-02-15T03:38:07;6.50;;;4.07;;
19816;SDS011;68323;49.394;8.434;2024-02-15T03:40:32;6.93;;;3.97;;
19816;SDS011;68323;49.394;8.434;2024-02-15T03:42:58;8.00;;;3.70;;
19816;SDS011;68323;49.394;8.434;2024-02-15T03:45:24;10.17;;;4.03;;
19816;SDS011;68323;49.394;8.434;2024-02-15T03:47:53;6.33;;;3.83;;
19816;SDS011;68323;49.394;8.434;2024-02-15T03:50:19;9.03;;;4.43;;
19816;SDS011;68323;49.394;8.434;2024-02-15T03:52:46;6.53;;;3.70;;
19816;SDS011;68323;49.394;8.434;2024-02-15T03:55:12;8.13;;;4.10;;
19816;SDS011;68323;49.394;8.434;2024-02-15T03:57:38;8.53;;;4.47;;
19816;SDS011;68323;49.394;8.434;2024-02-15T04:00:11;7.93;;;4.23;;
19816;SDS011;68323;49.394;8.434;2024-02-15T04:02:45;5.90;;;4.07;;
19816;SDS011;68323;49.394;8.434;2024-02-15T04:05:12;6.87;;;4.17;;
19816;SDS011;68323;49.394;8.434;2024-02-15T04:07:38;8.47;;;4.30;;
19816;SDS011;68323;49.394;8.434;2024-02-15T04:10:04;9.83;;;4.80;;
19816;SDS011;68323;49.394;8.434;2024-02-15T04:12:31;8.47;;;4.83;;
19816;SDS011;68323;49.394;8.434;2024-02-15T04:14:57;8.30;;;4.80;;
19816;SDS011;68323;49.394;8.434;2024-02-15T04:17:30;9.00;;;4.70;;
19816;SDS011;68323;49.394;8.434;2024-02-15T04:20:00;10.00;;;4.90;;
19816;SDS011;68323;49.394;8.434;2024-02-15T04:22:26;7.37;;;4.63;;
19816;SDS011;68323;49.394;8.434;2024-02-15T04:24:51;8.60;;;5.07;;
19816;SDS011;68323;49.394;8.434;2024-02-15T04:27:17;7.47;;;4.63;;
19816;SDS011;68323;49.394;8.434;2024-02-15T04:29:45;8.67;;;4.43;;
19816;SDS011;68323;49.394;8.434;2024-02-15T04:32:11;8.23;;;5.30;;
19816;SDS011;68323;49.394;8.434;2024-02-15T04:34:38;7.70;;;4.70;;
19816;SDS011;68323;49.394;8.434;2024-02-15T04:37:07;8.80;;;4.60;;
19816;SDS011;68323;49.394;8.434;2024-02-15T04:39:36;9.63;;;4.87;;
19816;SDS011;68323;49.394;8.434;2024-02-15T04:42:02;10.00;;;5.70;;
19816;SDS011;68323;49.394;8.434;2024-02-15T04:44:29;7.50;;;4.17;;
19816;SDS011;68323;49.394;8.434;2024-02-15T04:46:55;8.77;;;4.43;;
19816;SDS011;68323;49.394;8.434;2024-02-15T04:49:21;13.80;;;4.03;;
19816;SDS011;68323;49.394;8.434;2024-02-15T04:51:47;8.07;;;4.30;;
19816;SDS011;68323;49.394;8.434;2024-02-15T04:54:13;9.63;;;5.23;;
19816;SDS011;68323;49.394;8.434;2024-02-15T04:56:40;6.77;;;4.30;;
19816;SDS011;68323;49.394;8.434;2024-02-15T04:59:06;8.27;;;4.37;;
19816;SDS011;68323;49.394;8.434;2024-02-15T05:01:43;8.27;;;4.13;;
19816;SDS011;68323;49.394;8.434;2024-02-15T05:04:09;8.23;;;4.17;;
19816;SDS011;68323;49.394;8.434;2024-02-15T05:06:36;10.07;;;4.60;;
19816;SDS011;68323;49.394;8.434;2024-02-15T05:09:02;11.00;;;5.10;;
19816;SDS011;68323;49.394;8.434;2024-02-15T05:11:36;9.33;;;4.63;;
19816;SDS011;68323;49.394;8.434;2024-02-15T05:14:03;8.63;;;4.60;;
19816;SDS011;68323;49.394;8.434;2024-02-15T05:16:32;7.33;;;4.27;;
19816;SDS011;68323;49.394;8.434;2024-02-15T05:18:58;6.23;;;4.40;;
19816;SDS011;68323;49.394;8.434;2024-02-15T05:21:24;9.33;;;5.07;;
19816;SDS011;68323;49.394;8.434;2024-02-15T05:23:49;8.40;;;4.93;;
19816;SDS011;68323;49.394;8.434;2024-02-15T05:26:16;8.00;;;4.70;;
19816;SDS011;68323;49.394;8.434;2024-02-15T05:28:48;7.37;;;4.47;;
19816;SDS011;68323;49.394;8.434;2024-02-15T05:31:19;8.60;;;4.67;;
19816;SDS011;68323;49.394;8.434;2024-02-15T05:33:52;8.67;;;4.60;;
19816;SDS011;68323;49.394;8.434;2024-02-15T05:36:22;10.13;;;4.90;;
19816;SDS011;68323;49.394;8.434;2024-02-15T05:38:52;9.90;;;4.80;;
19816;SDS011;68323;49.394;8.434;2024-02-15T05:41:19;6.70;;;4.87;;
19816;SDS011;68323;49.394;8.434;2024-02-15T05:43:45;8.40;;;4.80;;
19816;SDS011;68323;49.394;8.434;2024-02-15T05:46:13;8.57;;;4.53;;
19816;SDS011;68323;49.394;8.434;2024-02-15T05:48:39;7.57;;;4.53;;
19816;SDS011;68323;49.394;8.434;2024-02-15T05:51:05;8.47;;;4.50;;
19816;SDS011;68323;49.394;8.434;2024-02-15T05:53:32;9.90;;;4.70;;
19816;SDS011;68323;49.394;8.434;2024-02-15T05:56:02;11.33;;;5.13;;
19816;SDS011;68323;49.394;8.434;2024-02-15T05:58:31;7.13;;;4.50;;
19816;SDS011;68323;49.394;8.434;2024-02-15T06:00:58;8.10;;;4.50;;
19816;SDS011;68323;49.394;8.434;2024-02-15T06:03:28;7.80;;;4.00;;
19816;SDS011;68323;49.394;8.434;2024-02-15T06:05:54;11.10;;;4.33;;
19816;SDS011;68323;49.394;8.434;2024-02-15T06:08:26;7.50;;;4.40;;
19816;SDS011;68323;49.394;8.434;2024-02-15T06:10:54;10.10;;;4.30;;
19816;SDS011;68323;49.394;8.434;2024-02-15T06:13:20;8.47;;;4.27;;
19816;SDS011;68323;49.394;8.434;2024-02-15T06:15:46;7.10;;;3.80;;
19816;SDS011;68323;49.394;8.434;2024-02-15T06:18:17;12.47;;;4.10;;
19816;SDS011;68323;49.394;8.434;2024-02-15T06:20:51;8.60;;;4.20;;
19816;SDS011;68323;49.394;8.434;2024-02-15T06:23:17;9.50;;;3.80;;
19816;SDS011;68323;49.394;8.434;2024-02-15T06:25:43;9.93;;;3.83;;
19816;SDS011;68323;49.394;8.434;2024-02-15T06:28:10;8.03;;;4.13;;
19816;SDS011;68323;49.394;8.434;2024-02-15T06:30:39;8.50;;;4.13;;
19816;SDS011;68323;49.394;8.434;2024-02-15T06:33:23;9.73;;;4.30;;
19816;SDS011;68323;49.394;8.434;2024-02-15T06:36:08;7.77;;;4.17;;
19816;SDS011;68323;49.394;8.434;2024-02-15T06:38:52;8.57;;;4.33;;
19816;SDS011;68323;49.394;8.434;2024-02-15T06:41:36;10.20;;;4.20;;
19816;SDS011;68323;49.394;8.434;2024-02-15T06:44:02;10.47;;;4.90;;
19816;SDS011;68323;49.394;8.434;2024-02-15T06:46:27;9.73;;;4.27;;
19816;SDS011;68323;49.394;8.434;2024-02-15T06:48:53;8.70;;;4.33;;
19816;SDS011;68323;49.394;8.434;2024-02-15T06:51:19;11.90;;;4.30;;
19816;SDS011;68323;49.394;8.434;2024-02-15T06:53:45;8.87;;;4.20;;
19816;SDS011;68323;49.394;8.434;2024-02-15T06:56:11;11.87;;;4.67;;
19816;SDS011;68323;49.394;8.434;2024-02-15T06:58:38;11.67;;;5.00;;
19816;SDS011;68323;49.394;8.434;2024-02-15T07:01:05;12.47;;;4.77;;
19816;SDS011;68323;49.394;8.434;2024-02-15T07:03:31;12.13;;;5.10;;
19816;SDS011;68323;49.394;8.434;2024-02-15T07:06:00;9.33;;;5.00;;
19816;SDS011;68323;49.394;8.434;2024-02-15T07:08:26;12.27;;;4.73;;
19816;SDS011;68323;49.394;8.434;2024-02-15T07:10:51;9.33;;;4.83;;
19816;SDS011;68323;49.394;8.434;2024-02-15T07:13:17;10.60;;;5.00;;
19816;SDS011;68323;49.394;8.434;2024-02-15T07:15:43;9.07;;;5.67;;
19816;SDS011;68323;49.394;8.434;2024-02-15T07:18:10;7.53;;;5.00;;
19816;SDS011;68323;49.394;8.434;2024-02-15T07:20:41;11.13;;;5.20;;
19816;SDS011;68323;49.394;8.434;2024-02-15T07:23:06;9.70;;;4.67;;
19816;SDS011;68323;49.394;8.434;2024-02-15T07:25:32;11.50;;;5.10;;
19816;SDS011;68323;49.394;8.434;2024-02-15T07:27:57;8.43;;;5.00;;
19816;SDS011;68323;49.394;8.434;2024-02-15T07:30:26;9.97;;;4.83;;
19816;SDS011;68323;49.394;8.434;2024-02-15T07:32:52;11.50;;;4.80;;
19816;SDS011;68323;49.394;8.434;2024-02-15T07:35:17;11.20;;;4.70;;
19816;SDS011;68323;49.394;8.434;2024-02-15T07:37:52;9.40;;;5.17;;
19816;SDS011;68323;49.394;8.434;2024-02-15T07:40:23;10.93;;;4.93;;
19816;SDS011;68323;49.394;8.434;2024-02-15T07:42:54;10.80;;;5.00;;
19816;SDS011;68323;49.394;8.434;2024-02-15T07:45:21;9.77;;;4.80;;
19816;SDS011;68323;49.394;8.434;2024-02-15T07:47:46;10.47;;;4.87;;
19816;SDS011;68323;49.394;8.434;2024-02-15T07:50:17;8.00;;;4.70;;
19816;SDS011;68323;49.394;8.434;2024-02-15T07:52:47;12.03;;;4.93;;
19816;SDS011;68323;49.394;8.434;2024-02-15T07:55:14;10.10;;;5.00;;
19816;SDS011;68323;49.394;8.434;2024-02-15T07:57:39;9.27;;;4.50;;
19816;SDS011;68323;49.394;8.434;2024-02-15T08:00:06;11.63;;;5.13;;
19816;SDS011;68323;49.394;8.434;2024-02-15T08:02:39;9.27;;;4.57;;
19816;SDS011;68323;49.394;8.434;2024-02-15T08:05:07;8.07;;;4.30;;
19816;SDS011;68323;49.394;8.434;2024-02-15T08:07:38;11.03;;;5.30;;
19816;SDS011;68323;49.394;8.434;2024-02-15T08:10:07;10.80;;;5.43;;
19816;SDS011;68323;49.394;8.434;2024-02-15T08:12:38;10.57;;;5.27;;
19816;SDS011;68323;49.394;8.434;2024-02-15T08:15:04;8.63;;;4.90;;
19816;SDS011;68323;49.394;8.434;2024-02-15T08:17:30;8.30;;;4.60;;
19816;SDS011;68323;49.394;8.434;2024-02-15T08:19:56;11.03;;;4.90;;
19816;SDS011;68323;49.394;8.434;2024-02-15T08:22:21;9.20;;;4.87;;
19816;SDS011;68323;49.394;8.434;2024-02-15T08:24:52;9.83;;;4.80;;
19816;SDS011;68323;49.394;8.434;2024-02-15T08:27:17;8.43;;;4.40;;
19816;SDS011;68323;49.394;8.434;2024-02-15T08:29:44;8.63;;;4.83;;
19816;SDS011;68323;49.394;8.434;2024-02-15T08:32:11;7.90;;;4.53;;
19816;SDS011;68323;49.394;8.434;2024-02-15T08:34:37;9.27;;;4.30;;
19816;SDS011;68323;49.394;8.434;2024-02-15T08:37:02;9.00;;;4.43;;
19816;SDS011;68323;49.394;8.434;2024-02-15T08:39:28;6.97;;;4.10;;
19816;SDS011;68323;49.394;8.434;2024-02-15T08:41:54;10.63;;;4.60;;
19816;SDS011;68323;49.394;8.434;2024-02-15T08:44:20;8.60;;;4.77;;
19816;SDS011;68323;49.394;8.434;2024-02-15T08:46:47;8.47;;;4.67;;
19816;SDS011;68323;49.394;8.434;2024-02-15T08:49:13;8.97;;;4.33;;
19816;SDS011;68323;49.394;8.434;2024-02-15T08:51:39;7.90;;;4.00;;
19816;SDS011;68323;49.394;8.434;2024-02-15T08:54:05;7.67;;;4.03;;
19816;SDS011;68323;49.394;8.434;2024-02-15T08:56:31;7.03;;;3.97;;
19816;SDS011;68323;49.394;8.434;2024-02-15T08:58:58;6.87;;;3.90;;
19816;SDS011;68323;49.394;8.434;2024-02-15T09:01:24;6.60;;;4.00;;
19816;SDS011;68323;49.394;8.434;2024-02-15T09:03:50;9.07;;;3.83;;
19816;SDS011;68323;49.394;8.434;2024-02-15T09:06:16;7.88;;;3.92;;
19816;SDS011;68323;49.394;8.434;2024-02-15T09:08:42;7.85;;;3.72;;
19816;SDS011;68323;49.394;8.434;2024-02-15T09:11:08;7.00;;;3.80;;
19816;SDS011;68323;49.394;8.434;2024-02-15T09:13:37;7.68;;;3.85;;
19816;SDS011;68323;49.394;8.434;2024-02-15T09:16:03;7.07;;;4.03;;
19816;SDS011;68323;49.394;8.434;2024-02-15T09:18:29;7.63;;;4.03;;
19816;SDS011;68323;49.394;8.434;2024-02-15T09:20:55;9.23;;;4.10;;
19816;SDS011;68323;49.394;8.434;2024-02-15T09:23:22;7.23;;;3.90;;
19816;SDS011;68323;49.394;8.434;2024-02-15T09:25:48;8.53;;;4.37;;
19816;SDS011;68323;49.394;8.434;2024-02-15T09:28:17;7.53;;;4.30;;
19816;SDS011;68323;49.394;8.434;2024-02-15T09:30:47;7.20;;;3.80;;
19816;SDS011;68323;49.394;8.434;2024-02-15T09:33:13;6.37;;;3.87;;
19816;SDS011;68323;49.394;8.434;2024-02-15T09:35:39;7.30;;;3.37;;
19816;SDS011;68323;49.394;8.434;2024-02-15T09:38:05;7.00;;;3.67;;
19816;SDS011;68323;49.394;8.434;2024-02-15T09:40:31;5.90;;;3.90;;
19816;SDS011;68323;49.394;8.434;2024-02-15T09:42:59;7.87;;;3.80;;
19816;SDS011;68323;49.394;8.434;2024-02-15T09:45:25;6.30;;;3.53;;
19816;SDS011;68323;49.394;8.434;2024-02-15T09:47:51;8.63;;;3.53;;
19816;SDS011;68323;49.394;8.434;2024-02-15T09:50:18;8.23;;;3.90;;
19816;SDS011;68323;49.394;8.434;2024-02-15T09:52:45;8.37;;;3.80;;
19816;SDS011;68323;49.394;8.434;2024-02-15T09:55:12;11.27;;;4.33;;
19816;SDS011;68323;49.394;8.434;2024-02-15T09:57:38;7.40;;;3.77;;
19816;SDS011;68323;49.394;8.434;2024-02-15T10:00:05;6.20;;;3.43;;
19816;SDS011;68323;49.394;8.434;2024-02-15T10:02:32;6.93;;;3.70;;
19816;SDS011;68323;49.394;8.434;2024-02-15T10:05:00;7.57;;;3.73;;
19816;SDS011;68323;49.394;8.434;2024-02-15T10:07:26;6.87;;;3.30;;
19816;SDS011;68323;49.394;8.434;2024-02-15T10:09:53;7.53;;;3.70;;
19816;SDS011;68323;49.394;8.434;2024-02-15T10:12:19;10.90;;;3.93;;
19816;SDS011;68323;49.394;8.434;2024-02-15T10:14:48;7.03;;;3.83;;
19816;SDS011;68323;49.394;8.434;2024-02-15T10:17:20;8.33;;;4.20;;
19816;SDS011;68323;49.394;8.434;2024-02-15T10:20:04;8.30;;;3.73;;
19816;SDS011;68323;49.394;8.434;2024-02-15T10:22:31;6.87;;;3.60;;
19816;SDS011;68323;49.394;8.434;2024-02-15T10:25:10;6.43;;;3.77;;
19816;SDS011;68323;49.394;8.434;2024-02-15T10:27:36;9.27;;;3.83;;
19816;SDS011;68323;49.394;8.434;2024-02-15T10:30:19;8.37;;;4.30;;
19816;SDS011;68323;49.394;8.434;2024-02-15T10:32:45;8.00;;;4.00;;
19816;SDS011;68323;49.394;8.434;2024-02-15T10:35:20;8.03;;;4.13;;
19816;SDS011;68323;49.394;8.434;2024-02-15T10:37:47;9.27;;;4.50;;
19816;SDS011;68323;49.394;8.434;2024-02-15T10:40:14;10.57;;;4.43;;
19816;SDS011;68323;49.394;8.434;2024-02-15T10:42:43;8.07;;;4.00;;
19816;SDS011;68323;49.394;8.434;2024-02-15T10:45:11;7.03;;;3.90;;
19816;SDS011;68323;49.394;8.434;2024-02-15T10:47:37;7.00;;;3.83;;
19816;SDS011;68323;49.394;8.434;2024-02-15T10:50:04;7.27;;;4.13;;
19816;SDS011;68323;49.394;8.434;2024-02-15T10:52:31;8.03;;;3.83;;
19816;SDS011;68323;49.394;8.434;2024-02-15T10:55:02;7.47;;;4.10;;
19816;SDS011;68323;49.394;8.434;2024-02-15T10:57:29;7.97;;;4.20;;
19816;SDS011;68323;49.394;8.434;2024-02-15T10:59:58;8.47;;;3.97;;
19816;SDS011;68323;49.394;8.434;2024-02-15T11:02:27;8.00;;;3.50;;
19816;SDS011;68323;49.394;8.434;2024-02-15T11:04:54;5.70;;;3.00;;
19816;SDS011;68323;49.394;8.434;2024-02-15T11:07:27;7.37;;;3.23;;
19816;SDS011;68323;49.394;8.434;2024-02-15T11:09:53;9.50;;;3.43;;
19816;SDS011;68323;49.394;8.434;2024-02-15T11:12:21;5.53;;;2.57;;
19816;SDS011;68323;49.394;8.434;2024-02-15T11:14:48;6.23;;;2.80;;
19816;SDS011;68323;49.394;8.434;2024-02-15T11:17:44;8.63;;;2.87;;
19816;SDS011;68323;49.394;8.434;2024-02-15T11:20:09;6.47;;;2.53;;
19816;SDS011;68323;49.394;8.434;2024-02-15T11:22:37;4.47;;;2.33;;
19816;SDS011;68323;49.394;8.434;2024-02-15T11:25:04;6.93;;;2.57;;
19816;SDS011;68323;49.394;8.434;2024-02-15T11:27:37;4.97;;;2.10;;
19816;SDS011;68323;49.394;8.434;2024-02-15T11:30:05;5.10;;;2.33;;
19816;SDS011;68323;49.394;8.434;2024-02-15T11:35:07;4.50;;;1.90;;
19816;SDS011;68323;49.394;8.434;2024-02-15T11:40:23;5.00;;;2.10;;
19816;SDS011;68323;49.394;8.434;2024-02-15T11:42:54;3.80;;;1.80;;
19816;SDS011;68323;49.394;8.434;2024-02-15T11:45:22;6.90;;;2.07;;
19816;SDS011;68323;49.394;8.434;2024-02-15T11:47:50;4.97;;;1.90;;
19816;SDS011;68323;49.394;8.434;2024-02-15T11:50:17;5.50;;;2.00;;
19816;SDS011;68323;49.394;8.434;2024-02-15T11:52:50;4.93;;;1.87;;
19816;SDS011;68323;49.394;8.434;2024-02-15T11:55:19;5.10;;;2.10;;
19816;SDS011;68323;49.394;8.434;2024-02-15T11:57:55;4.10;;;1.60;;
19816;SDS011;68323;49.394;8.434;2024-02-15T12:00:29;6.07;;;2.03;;
19816;SDS011;68323;49.394;8.434;2024-02-15T12:03:30;3.73;;;1.63;;
19816;SDS011;68323;49.394;8.434;2024-02-15T12:06:18;7.50;;;1.90;;
19816;SDS011;68323;49.394;8.434;2024-02-15T12:09:02;5.27;;;1.83;;
19816;SDS011;68323;49.394;8.434;2024-02-15T12:11:47;3.90;;;1.57;;
19816;SDS011;68323;49.394;8.434;2024-02-15T12:14:41;6.60;;;1.73;;
19816;SDS011;68323;49.394;8.434;2024-02-15T12:17:26;6.10;;;1.77;;
19816;SDS011;68323;49.394;8.434;2024-02-15T12:20:10;3.30;;;1.70;;
19816;SDS011;68323;49.394;8.434;2024-02-15T12:22:47;5.00;;;1.50;;
19816;SDS011;68323;49.394;8.434;2024-02-15T12:25:15;3.93;;;1.70;;
19816;SDS011;68323;49.394;8.434;2024-02-15T12:27:41;4.37;;;1.80;;
19816;SDS011;68323;49.394;8.434;2024-02-15T12:30:08;4.27;;;1.80;;
19816;SDS011;68323;49.394;8.434;2024-02-15T12:32:38;5.73;;;2.17;;
19816;SDS011;68323;49.394;8.434;2024-02-15T12:35:17;3.63;;;1.70;;
19816;SDS011;68323;49.394;8.434;2024-02-15T12:40:33;3.73;;;1.60;;
19816;SDS011;68323;49.394;8.434;2024-02-15T12:42:59;5.40;;;1.90;;
19816;SDS011;68323;49.394;8.434;2024-02-15T12:45:26;7.87;;;1.70;;
19816;SDS011;68323;49.394;8.434;2024-02-15T12:47:55;5.27;;;2.10;;
19816;SDS011;68323;49.394;8.434;2024-02-15T12:50:23;4.23;;;1.83;;
19816;SDS011;68323;49.394;8.434;2024-02-15T12:52:52;5.07;;;1.73;;
19816;SDS011;68323;49.394;8.434;2024-02-15T12:55:19;4.40;;;1.80;;
19816;SDS011;68323;49.394;8.434;2024-02-15T12:57:49;5.67;;;2.00;;
19816;SDS011;68323;49.394;8.434;2024-02-15T13:00:20;6.80;;;1.90;;
19816;SDS011;68323;49.394;8.434;2024-02-15T13:02:50;3.73;;;1.83;;
19816;SDS011;68323;49.394;8.434;2024-02-15T13:05:16;4.23;;;1.63;;
19816;SDS011;68323;49.394;8.434;2024-02-15T13:07:47;6.00;;;1.87;;
19816;SDS011;68323;49.394;8.434;2024-02-15T13:10:13;3.73;;;1.70;;
19816;SDS011;68323;49.394;8.434;2024-02-15T13:12:43;5.27;;;1.50;;
19816;SDS011;68323;49.394;8.434;2024-02-15T13:15:10;3.87;;;1.90;;
19816;SDS011;68323;49.394;8.434;2024-02-15T13:17:39;6.27;;;2.70;;
19816;SDS011;68323;49.394;8.434;2024-02-15T13:20:05;5.97;;;3.07;;
19816;SDS011;68323;49.394;8.434;2024-02-15T13:22:38;8.20;;;2.60;;
19816;SDS011;68323;49.394;8.434;2024-02-15T13:25:07;10.30;;;2.23;;
19816;SDS011;68323;49.394;8.434;2024-02-15T13:27:34;5.57;;;1.70;;
19816;SDS011;68323;49.394;8.434;2024-02-15T13:30:01;3.67;;;1.60;;
19816;SDS011;68323;49.394;8.434;2024-02-15T13:32:27;5.27;;;1.80;;
19816;SDS011;68323;49.394;8.434;2024-02-15T13:34:54;5.07;;;1.90;;
19816;SDS011;68323;49.394;8.434;2024-02-15T13:37:21;3.83;;;1.73;;
19816;SDS011;68323;49.394;8.434;2024-02-15T13:39:51;3.17;;;1.60;;
19816;SDS011;68323;49.394;8.434;2024-02-15T13:42:17;4.87;;;1.50;;
19816;SDS011;68323;49.394;8.434;2024-02-15T13:44:44;6.80;;;1.80;;
19816;SDS011;68323;49.394;8.434;2024-02-15T13:47:11;4.03;;;1.67;;
19816;SDS011;68323;49.394;8.434;2024-02-15T13:49:37;5.87;;;1.60;;
19816;SDS011;68323;49.394;8.434;2024-02-15T13:52:04;6.50;;;1.73;;
19816;SDS011;68323;49.394;8.434;2024-02-15T13:54:31;3.70;;;1.80;;
19816;SDS011;68323;49.394;8.434;2024-02-15T13:56:58;2.87;;;1.43;;
19816;SDS011;68323;49.394;8.434;2024-02-15T13:59:26;4.03;;;1.90;;
19816;SDS011;68323;49.394;8.434;2024-02-15T14:01:52;4.60;;;1.30;;
19816;SDS011;68323;49.394;8.434;2024-02-15T14:04:18;3.03;;;1.40;;
19816;SDS011;68323;49.394;8.434;2024-02-15T14:06:44;4.07;;;1.30;;
19816;SDS011;68323;49.394;8.434;2024-02-15T14:09:11;3.40;;;1.20;;
19816;SDS011;68323;49.394;8.434;2024-02-15T14:11:37;3.27;;;1.20;;
19816;SDS011;68323;49.394;8.434;2024-02-15T14:14:04;6.30;;;1.20;;
19816;SDS011;68323;49.394;8.434;2024-02-15T14:16:30;4.07;;;1.40;;
19816;SDS011;68323;49.394;8.434;2024-02-15T14:18:56;3.03;;;1.20;;
19816;SDS011;68323;49.394;8.434;2024-02-15T14:21:22;4.07;;;1.50;;
19816;SDS011;68323;49.394;8.434;2024-02-15T14:23:48;3.53;;;1.63;;
19816;SDS011;68323;49.394;8.434;2024-02-15T14:26:14;3.60;;;1.70;;
19816;SDS011;68323;49.394;8.434;2024-02-15T14:28:41;5.23;;;1.70;;
19816;SDS011;68323;49.394;8.434;2024-02-15T14:31:09;4.03;;;1.70;;
19816;SDS011;68323;49.394;8.434;2024-02-15T14:33:54;3.47;;;1.57;;
19816;SDS011;68323;49.394;8.434;2024-02-15T14:36:20;4.80;;;1.30;;
19816;SDS011;68323;49.394;8.434;2024-02-15T14:38:46;3.20;;;1.33;;
19816;SDS011;68323;49.394;8.434;2024-02-15T14:41:12;4.47;;;1.47;;
19816;SDS011;68323;49.394;8.434;2024-02-15T14:43:38;2.80;;;1.30;;
19816;SDS011;68323;49.394;8.434;2024-02-15T14:46:04;3.83;;;1.40;;
19816;SDS011;68323;49.394;8.434;2024-02-15T14:48:32;4.30;;;1.57;;
19816;SDS011;68323;49.394;8.434;2024-02-15T14:50:59;3.90;;;1.20;;
19816;SDS011;68323;49.394;8.434;2024-02-15T14:53:25;2.73;;;1.27;;
19816;SDS011;68323;49.394;8.434;2024-02-15T14:55:54;2.83;;;1.30;;
19816;SDS011;68323;49.394;8.434;2024-02-15T14:58:20;4.17;;;1.23;;
19816;SDS011;68323;49.394;8.434;2024-02-15T15:00:47;4.50;;;1.33;;